Caddo Valley, Arkansas
Current Conditions -  °F | °C
As of 9:56 PM on Wednesday 26 Nov 2014 (Local Time) from KADF Reporting Station
Clear Clear  
Wind Chill: 39°   Ceiling: Unl
Heat Index: 42°   Visibility: 10mi
Dew Point: 34°   Wind: 5mph
Humidity: 73%   Direction: 260°W
Pressure: 30.28"   Gusts: NA
Location:  34.0941°N, 93.0475°W
Report Text: KADF 270356Z AUTO 26004KT 10SM CLR 06/01 A3028 RMK AO2 T00550011 SLP271
Loading
Personal Weather Stations






























Interactive Weather Map New forecast layout! Learn more

10-Day Weather Forecast

Advertisements
Track Severe Weather on mobile